Time;durP1;ratioP1;P1;durP2;ratioP2;P2;SDS_P1;SDS_P2;PMS_P1;PMS_P2;Temp;Humidity;BMP_temperature;BMP_pressure;BME280_temperature;BME280_humidity;BME280_pressure;Samples;Min_cycle;Max_cycle;Signal;HPM_P1;HPM_P2
2023/06/12 00:01:31;;;;;;;4.33;3.00;;;19.60;84.40;;;;;;5072879;28;20536;-80
2023/06/12 00:03:58;;;;;;;3.83;2.60;;;19.50;85.40;;;;;;5072848;28;20488;-81
2023/06/12 00:06:25;;;;;;;3.07;2.87;;;19.50;84.40;;;;;;5072740;28;20460;-80
2023/06/12 00:08:52;;;;;;;3.60;2.27;;;19.50;84.50;;;;;;5072759;28;20452;-80
2023/06/12 00:11:18;;;;;;;4.63;2.97;;;19.40;84.70;;;;;;5072788;28;20444;-81
2023/06/12 00:13:48;;;;;;;2.90;2.70;;;19.30;85.10;;;;;;5072742;28;20460;-81
2023/06/12 00:16:15;;;;;;;2.37;1.97;;;19.30;85.30;;;;;;5072603;28;20499;-81
2023/06/12 00:18:44;;;;;;;2.43;2.20;;;19.30;85.40;;;;;;5072683;28;20443;-80
2023/06/12 00:21:12;;;;;;;2.83;2.17;;;19.20;85.50;;;;;;5072374;28;20491;-81
2023/06/12 00:23:39;;;;;;;2.23;2.07;;;19.20;85.80;;;;;;5072393;28;20437;-81
2023/06/12 00:26:06;;;;;;;5.50;2.43;;;19.20;86.10;;;;;;5073289;28;20998;-81
2023/06/12 00:28:33;;;;;;;3.67;2.80;;;19.20;86.30;;;;;;5075884;28;20989;-81
2023/06/12 00:31:00;;;;;;;4.17;2.40;;;19.10;86.90;;;;;;5076150;28;20639;-80
2023/06/12 00:33:27;;;;;;;3.60;2.40;;;19.10;86.90;;;;;;5075847;28;20440;-80
2023/06/12 00:35:55;;;;;;;1.57;1.47;;;19.10;86.90;;;;;;5076000;28;20516;-80
2023/06/12 00:38:22;;;;;;;3.67;2.90;;;19.10;86.50;;;;;;5075688;28;20448;-81
2023/06/12 00:40:50;;;;;;;3.13;2.30;;;19.10;86.60;;;;;;5075687;28;20445;-81
2023/06/12 00:43:16;;;;;;;2.80;2.60;;;19.10;86.70;;;;;;5075638;28;20782;-80
2023/06/12 00:45:43;;;;;;;3.73;2.90;;;18.90;86.80;;;;;;5075560;28;20472;-80
2023/06/12 00:48:10;;;;;;;3.17;2.13;;;18.90;87.00;;;;;;5075611;28;20968;-80
2023/06/12 00:50:39;;;;;;;2.97;2.67;;;18.90;87.10;;;;;;5075492;28;20449;-80
2023/06/12 00:53:08;;;;;;;2.50;2.30;;;18.80;87.30;;;;;;5075765;28;20457;-80
2023/06/12 00:55:35;;;;;;;3.03;2.77;;;18.80;87.50;;;;;;5075626;28;20476;-80
2023/06/12 00:58:02;;;;;;;2.90;2.70;;;18.80;87.80;;;;;;5075373;28;20986;-80
2023/06/12 01:00:29;;;;;;;3.70;2.37;;;18.80;88.20;;;;;;5075308;28;20948;-81
2023/06/12 01:03:03;;;;;;;3.33;2.40;;;18.70;88.60;;;;;;5075631;28;20524;-80
2023/06/12 01:05:33;;;;;;;2.07;1.97;;;18.70;88.40;;;;;;5075489;28;20437;-80
2023/06/12 01:08:17;;;;;;;3.77;2.50;;;18.70;88.80;;;;;;5075457;28;20940;-80
2023/06/12 01:10:50;;;;;;;3.13;2.43;;;18.70;88.60;;;;;;5075508;28;20463;-80
2023/06/12 01:13:18;;;;;;;3.70;2.37;;;18.70;89.60;;;;;;5075514;28;20410;-81
2023/06/12 01:15:45;;;;;;;3.03;2.73;;;18.60;89.00;;;;;;5074915;28;20480;-80
2023/06/12 01:18:12;;;;;;;3.07;2.33;;;18.60;89.40;;;;;;5075315;28;20456;-80
2023/06/12 01:20:40;;;;;;;2.40;2.23;;;18.60;89.10;;;;;;5074975;28;20483;-81
2023/06/12 01:23:14;;;;;;;4.17;2.87;;;18.50;89.20;;;;;;5075284;28;20433;-81
2023/06/12 01:26:17;;;;;;;3.97;2.90;;;18.50;89.30;;;;;;5075065;28;20914;-80
2023/06/12 01:29:23;;;;;;;2.63;2.27;;;18.50;89.80;;;;;;5074809;28;20531;-80
2023/06/12 01:32:11;;;;;;;2.80;2.40;;;18.50;89.60;;;;;;5075054;28;20440;-81
2023/06/12 01:34:50;;;;;;;3.33;2.80;;;18.40;89.60;;;;;;5075043;28;20500;-81
2023/06/12 01:37:25;;;;;;;2.93;2.60;;;18.40;89.60;;;;;;5073638;28;20694;-81
2023/06/12 01:39:57;;;;;;;3.20;2.50;;;18.40;90.00;;;;;;5074887;28;20518;-80
2023/06/12 01:42:25;;;;;;;3.03;2.60;;;18.30;90.10;;;;;;5074538;28;20804;-81
2023/06/12 01:44:52;;;;;;;2.80;2.40;;;18.30;90.20;;;;;;5074740;28;20449;-80
2023/06/12 01:47:21;;;;;;;3.03;2.67;;;18.30;90.30;;;;;;5074345;28;20983;-80
2023/06/12 01:49:47;;;;;;;2.90;2.67;;;18.20;90.20;;;;;;5074547;28;20814;-80
2023/06/12 01:52:14;;;;;;;2.37;2.27;;;18.20;90.30;;;;;;5074310;28;20948;-80
2023/06/12 01:54:45;;;;;;;4.40;2.80;;;18.20;90.50;;;;;;5074556;28;20449;-81
2023/06/12 01:57:12;;;;;;;2.43;2.23;;;18.20;90.60;;;;;;5074412;28;20917;-80
2023/06/12 01:59:39;;;;;;;4.50;3.00;;;18.10;90.70;;;;;;5074440;28;20453;-80
2023/06/12 02:02:05;;;;;;;2.47;2.27;;;18.10;90.60;;;;;;5074413;28;20445;-80
2023/06/12 02:04:33;;;;;;;2.87;2.60;;;18.10;90.80;;;;;;5074369;28;20453;-80
2023/06/12 02:07:01;;;;;;;5.37;2.77;;;18.10;91.10;;;;;;5074240;28;20476;-80
2023/06/12 02:09:28;;;;;;;3.73;2.60;;;18.00;91.30;;;;;;5074268;28;20443;-80
2023/06/12 02:11:55;;;;;;;3.07;2.33;;;18.00;91.10;;;;;;5074235;28;20803;-81
2023/06/12 02:14:23;;;;;;;2.43;2.00;;;18.00;91.20;;;;;;5074173;28;20441;-80
2023/06/12 02:16:53;;;;;;;5.13;2.63;;;18.00;91.20;;;;;;5073638;28;20533;-80
2023/06/12 02:19:22;;;;;;;4.00;2.47;;;18.00;91.20;;;;;;5074365;28;20544;-80
2023/06/12 02:21:50;;;;;;;2.33;2.13;;;17.90;91.40;;;;;;5073626;28;20480;-80
2023/06/12 02:24:17;;;;;;;3.40;3.00;;;17.90;91.50;;;;;;5074012;28;20453;-81
2023/06/12 02:26:43;;;;;;;4.23;1.97;;;17.90;91.80;;;;;;5073640;28;20468;-80
2023/06/12 02:29:12;;;;;;;2.90;2.37;;;17.90;91.80;;;;;;5073627;28;20969;-80
2023/06/12 02:31:39;;;;;;;5.90;3.23;;;17.90;91.70;;;;;;5073858;28;20460;-80
2023/06/12 02:34:06;;;;;;;3.60;2.30;;;17.80;91.80;;;;;;5073851;28;20456;-80
2023/06/12 02:36:33;;;;;;;4.13;2.70;;;17.80;92.20;;;;;;5073687;28;20484;-80
2023/06/12 02:39:02;;;;;;;4.23;2.50;;;17.80;92.60;;;;;;5073453;28;20860;-80
2023/06/12 02:41:29;;;;;;;3.97;2.70;;;17.70;93.00;;;;;;5073740;28;20451;-80
2023/06/12 02:43:56;;;;;;;2.63;2.20;;;17.70;93.10;;;;;;5073471;28;20429;-80
2023/06/12 02:46:22;;;;;;;2.47;2.00;;;17.70;92.60;;;;;;5073333;28;20461;-79
2023/06/12 02:48:49;;;;;;;5.20;2.77;;;17.60;92.70;;;;;;5073335;28;20443;-80
2023/06/12 02:51:16;;;;;;;3.47;2.30;;;17.60;92.60;;;;;;5073631;28;20453;-80
2023/06/12 02:53:42;;;;;;;2.40;1.97;;;17.60;92.70;;;;;;5073554;28;20460;-80
2023/06/12 02:56:11;;;;;;;5.47;2.40;;;17.60;92.90;;;;;;5073387;28;20539;-80
2023/06/12 02:58:39;;;;;;;4.27;2.87;;;17.60;93.30;;;;;;5073496;28;20453;-80
2023/06/12 03:01:06;;;;;;;3.23;2.30;;;17.60;93.20;;;;;;5073487;28;20452;-80
2023/06/12 03:03:35;;;;;;;3.60;2.77;;;17.60;93.30;;;;;;5073459;28;20798;-80
2023/06/12 03:06:03;;;;;;;4.20;3.00;;;17.60;93.80;;;;;;5073369;28;20498;-80
2023/06/12 03:08:30;;;;;;;3.57;2.10;;;17.60;93.50;;;;;;5073072;28;20929;-80
2023/06/12 03:10:57;;;;;;;2.77;2.23;;;17.60;93.60;;;;;;5073383;28;20460;-80
2023/06/12 03:13:25;;;;;;;2.47;1.90;;;17.70;94.00;;;;;;5073340;28;20449;-80
2023/06/12 03:15:52;;;;;;;2.43;2.23;;;17.60;94.10;;;;;;5073234;28;20473;-80
2023/06/12 03:18:19;;;;;;;2.50;2.30;;;17.60;94.20;;;;;;5073233;28;20481;-80
2023/06/12 03:20:45;;;;;;;1.73;1.63;;;17.60;94.20;;;;;;5073138;28;20469;-81
2023/06/12 03:23:12;;;;;;;3.03;2.10;;;17.60;94.60;;;;;;5072996;28;20440;-80
2023/06/12 03:25:39;;;;;;;2.80;2.20;;;17.60;95.00;;;;;;5073185;28;20471;-79
2023/06/12 03:28:06;;;;;;;3.10;2.40;;;17.50;95.10;;;;;;5073018;28;20451;-80
2023/06/12 03:30:34;;;;;;;3.10;2.67;;;17.60;95.20;;;;;;5073181;28;20453;-80
2023/06/12 03:33:01;;;;;;;3.10;2.70;;;17.40;95.30;;;;;;5072836;28;20940;-80
2023/06/12 03:35:29;;;;;;;5.07;2.43;;;17.40;95.50;;;;;;5073037;28;20437;-80
2023/06/12 03:37:56;;;;;;;3.00;1.80;;;17.40;95.60;;;;;;5072998;28;20480;-80
2023/06/12 03:40:23;;;;;;;2.50;1.80;;;17.40;95.50;;;;;;5073028;28;20471;-80
2023/06/12 03:42:49;;;;;;;3.57;2.47;;;17.40;95.60;;;;;;5072813;28;20444;-80
2023/06/12 03:45:16;;;;;;;2.90;2.60;;;17.40;95.60;;;;;;5072946;28;20460;-80
2023/06/12 03:47:44;;;;;;;2.27;1.57;;;17.40;96.10;;;;;;5072961;28;20433;-81
2023/06/12 03:50:11;;;;;;;3.03;2.53;;;17.40;95.70;;;;;;5072663;28;20949;-81
2023/06/12 03:52:39;;;;;;;3.37;3.07;;;17.40;95.60;;;;;;5072971;28;20445;-81
2023/06/12 03:55:06;;;;;;;4.80;2.40;;;17.40;95.90;;;;;;5072616;28;20460;-80
2023/06/12 03:57:33;;;;;;;5.23;1.90;;;17.50;95.70;;;;;;5072441;28;20481;-80
2023/06/12 03:59:59;;;;;;;3.97;3.20;;;17.60;95.70;;;;;;5073136;28;20444;-80
2023/06/12 04:02:27;;;;;;;3.03;2.33;;;17.60;95.90;;;;;;5076036;28;20820;-80
2023/06/12 04:04:55;;;;;;;4.63;2.30;;;17.60;95.80;;;;;;5076405;28;20982;-80
2023/06/12 04:07:22;;;;;;;6.07;2.90;;;17.60;96.20;;;;;;5076532;28;20560;-81
2023/06/12 04:09:49;;;;;;;2.80;2.30;;;17.70;96.40;;;;;;5076546;28;20453;-81
2023/06/12 04:12:15;;;;;;;2.33;2.13;;;17.70;96.90;;;;;;5076536;28;20463;-81
2023/06/12 04:14:42;;;;;;;6.33;3.00;;;17.70;96.60;;;;;;5076480;28;20566;-80
2023/06/12 04:17:09;;;;;;;2.77;2.30;;;17.80;96.60;;;;;;5076279;28;20488;-81
2023/06/12 04:19:36;;;;;;;3.53;2.90;;;17.80;97.20;;;;;;5076389;28;20453;-81
2023/06/12 04:22:05;;;;;;;2.50;2.00;;;17.80;97.30;;;;;;5075871;28;20499;-81
2023/06/12 04:24:32;;;;;;;3.83;2.43;;;17.90;97.40;;;;;;5075965;28;20928;-80
2023/06/12 04:27:01;;;;;;;3.10;2.37;;;17.90;97.10;;;;;;5076163;28;20464;-80
2023/06/12 04:29:31;;;;;;;3.90;2.67;;;17.90;97.20;;;;;;5075958;28;20932;-80
2023/06/12 04:31:59;;;;;;;2.50;2.30;;;17.90;97.80;;;;;;5076190;28;20444;-81
2023/06/12 04:34:26;;;;;;;4.13;2.80;;;17.90;98.00;;;;;;5075855;28;20444;-81
2023/06/12 04:36:53;;;;;;;2.97;2.27;;;17.90;98.10;;;;;;5075958;28;20492;-80
2023/06/12 04:39:23;;;;;;;3.30;2.73;;;17.90;98.80;;;;;;5075717;28;20448;-80
2023/06/12 04:41:51;;;;;;;2.80;2.47;;;17.90;99.30;;;;;;5076281;28;20849;-80
2023/06/12 04:44:19;;;;;;;4.23;2.70;;;17.90;99.70;;;;;;5075998;28;20473;-80
2023/06/12 04:46:46;;;;;;;3.83;2.90;;;17.90;99.70;;;;;;5075811;28;20465;-81
2023/06/12 04:49:14;;;;;;;4.10;2.77;;;17.90;99.90;;;;;;5075871;28;20507;-80
2023/06/12 04:51:42;;;;;;;3.23;2.93;;;18.00;99.90;;;;;;5075824;28;20498;-80
2023/06/12 04:54:10;;;;;;;3.57;2.80;;;18.00;99.90;;;;;;5075788;28;20532;-80
2023/06/12 04:56:40;;;;;;;2.77;2.27;;;18.00;99.90;;;;;;5075589;28;20469;-81
2023/06/12 04:59:08;;;;;;;2.30;2.10;;;18.10;99.90;;;;;;5075762;28;20472;-80
2023/06/12 05:01:35;;;;;;;3.20;2.90;;;18.10;99.90;;;;;;5075319;28;20967;-80
2023/06/12 05:04:02;;;;;;;3.13;2.33;;;18.10;99.90;;;;;;5075323;28;20963;-80
2023/06/12 05:06:28;;;;;;;2.80;2.37;;;18.10;99.90;;;;;;5075158;28;21063;-80
2023/06/12 05:08:55;;;;;;;3.20;2.57;;;18.20;99.90;;;;;;5075477;28;20449;-81
2023/06/12 05:11:22;;;;;;;5.23;2.60;;;18.20;99.90;;;;;;5075036;28;20959;-80
2023/06/12 05:13:50;;;;;;;5.60;3.00;;;18.20;99.90;;;;;;5075321;28;20453;-80
2023/06/12 05:16:17;;;;;;;3.30;2.90;;;18.30;99.90;;;;;;5075008;28;21083;-80
2023/06/12 05:18:43;;;;;;;11.43;3.67;;;18.30;99.90;;;;;;5075242;28;20477;-80
2023/06/12 05:21:10;;;;;;;2.90;2.27;;;18.40;99.90;;;;;;5074942;28;20487;-80
2023/06/12 05:23:37;;;;;;;3.33;2.50;;;18.50;99.90;;;;;;5075217;28;20483;-80
2023/06/12 05:26:04;;;;;;;3.97;2.33;;;18.50;99.90;;;;;;5075121;28;20464;-80
2023/06/12 05:28:31;;;;;;;3.07;2.70;;;18.60;99.90;;;;;;5075176;28;20487;-80
2023/06/12 05:30:59;;;;;;;3.03;2.57;;;18.70;99.90;;;;;;5075081;28;20459;-80
2023/06/12 05:33:26;;;;;;;2.90;2.70;;;18.70;99.90;;;;;;5075079;28;20801;-81
2023/06/12 05:35:53;;;;;;;2.90;2.60;;;18.80;99.90;;;;;;5074926;28;20475;-80
2023/06/12 05:38:19;;;;;;;3.07;2.10;;;18.90;99.90;;;;;;5074815;28;20499;-80
2023/06/12 05:40:46;;;;;;;4.33;3.20;;;19.00;99.50;;;;;;5074532;28;20905;-81
2023/06/12 05:43:13;;;;;;;2.70;2.50;;;19.20;99.70;;;;;;5074799;28;20451;-80
2023/06/12 05:45:40;;;;;;;4.73;2.80;;;19.30;99.90;;;;;;5074325;28;20980;-81
2023/06/12 05:48:08;;;;;;;4.70;3.10;;;19.50;99.50;;;;;;5074726;28;20481;-80
2023/06/12 05:50:35;;;;;;;2.43;2.10;;;19.60;99.40;;;;;;5074363;28;20827;-81
2023/06/12 05:53:02;;;;;;;3.47;2.27;;;19.80;98.70;;;;;;5074498;28;20442;-80
2023/06/12 05:55:29;;;;;;;3.87;3.23;;;20.00;98.30;;;;;;5074454;28;20452;-81
2023/06/12 05:57:56;;;;;;;3.77;2.60;;;20.10;98.20;;;;;;5074380;28;20908;-80
2023/06/12 06:00:23;;;;;;;2.83;2.57;;;20.20;97.50;;;;;;5074453;28;20462;-81
2023/06/12 06:02:50;;;;;;;3.13;2.80;;;20.40;97.40;;;;;;5074102;28;20821;-80
2023/06/12 06:05:18;;;;;;;3.33;2.40;;;20.50;97.70;;;;;;5074274;28;20453;-81
2023/06/12 06:07:49;;;;;;;3.30;2.70;;;20.60;97.80;;;;;;5074313;28;20457;-81
2023/06/12 06:10:16;;;;;;;4.03;2.90;;;20.70;97.00;;;;;;5074331;28;20469;-81
2023/06/12 06:12:43;;;;;;;3.23;2.93;;;20.90;96.90;;;;;;5074209;28;20448;-81
2023/06/12 06:15:10;;;;;;;4.17;2.60;;;21.10;96.20;;;;;;5074230;28;20448;-81
2023/06/12 06:17:37;;;;;;;3.90;2.90;;;21.20;96.40;;;;;;5074003;28;20492;-81
2023/06/12 06:20:06;;;;;;;3.50;2.83;;;21.40;96.40;;;;;;5073885;28;20924;-81
2023/06/12 06:22:34;;;;;;;3.03;2.67;;;21.60;95.40;;;;;;5073638;28;20476;-81
2023/06/12 06:25:00;;;;;;;2.93;2.73;;;21.80;95.30;;;;;;5073105;28;20821;-81
2023/06/12 06:27:27;;;;;;;3.40;3.10;;;22.00;95.40;;;;;;5073698;28;20456;-81
2023/06/12 06:29:54;;;;;;;4.13;2.93;;;22.20;95.50;;;;;;5073898;28;20451;-81
2023/06/12 06:32:21;;;;;;;3.90;3.00;;;22.40;94.60;;;;;;5073886;28;20455;-83
2023/06/12 06:34:48;;;;;;;3.30;3.00;;;22.70;93.90;;;;;;5073855;28;20459;-81
2023/06/12 06:37:15;;;;;;;2.97;2.70;;;23.00;93.30;;;;;;5073636;28;20226;-82
2023/06/12 06:39:43;;;;;;;3.30;3.00;;;23.20;93.50;;;;;;5073730;28;20545;-81
2023/06/12 06:42:11;;;;;;;3.20;2.90;;;23.60;93.30;;;;;;5073740;28;20210;-81
2023/06/12 06:44:38;;;;;;;3.47;3.17;;;23.90;92.00;;;;;;5073660;28;20198;-81
2023/06/12 06:47:05;;;;;;;3.30;3.05;;;24.00;92.10;;;;;;5073584;28;20275;-81
2023/06/12 06:49:32;;;;;;;5.38;3.30;;;24.10;91.50;;;;;;5073282;28;20677;-83
2023/06/12 06:51:58;;;;;;;3.25;2.95;;;24.20;91.30;;;;;;5073624;28;20209;-81
2023/06/12 06:54:25;;;;;;;2.83;2.63;;;24.20;90.90;;;;;;5073571;28;20202;-81
2023/06/12 06:56:53;;;;;;;3.00;2.80;;;24.10;91.60;;;;;;5073150;28;20275;-82
2023/06/12 06:59:20;;;;;;;3.58;3.03;;;24.20;91.40;;;;;;5073384;28;20226;-82
2023/06/12 07:01:47;;;;;;;4.32;3.45;;;24.20;91.40;;;;;;5073445;28;20209;-81
2023/06/12 07:04:14;;;;;;;3.13;2.42;;;24.20;91.90;;;;;;5073150;28;20661;-81
2023/06/12 07:06:40;;;;;;;3.40;3.10;;;24.10;91.30;;;;;;5073016;28;20232;-81
2023/06/12 07:09:08;;;;;;;3.63;3.33;;;24.10;91.20;;;;;;5073421;28;20202;-81
2023/06/12 07:11:34;;;;;;;8.52;3.10;;;24.30;90.90;;;;;;5073379;28;20212;-81
2023/06/12 07:14:02;;;;;;;6.13;2.95;;;24.30;91.10;;;;;;5073368;28;20205;-81
2023/06/12 07:16:31;;;;;;;4.10;2.67;;;24.40;90.90;;;;;;5073274;28;20233;-81
2023/06/12 07:18:58;;;;;;;2.38;2.13;;;24.60;90.80;;;;;;5073265;28;20228;-81
2023/06/12 07:21:26;;;;;;;5.22;3.10;;;24.60;90.60;;;;;;5072841;28;20241;-81
2023/06/12 07:23:53;;;;;;;4.13;3.50;;;24.60;90.00;;;;;;5073190;28;20296;-81
2023/06/12 07:26:19;;;;;;;6.80;2.42;;;24.70;90.30;;;;;;5073243;28;20226;-82
2023/06/12 07:28:46;;;;;;;3.10;2.80;;;24.50;89.10;;;;;;5072930;28;20202;-80
2023/06/12 07:31:14;;;;;;;3.80;2.90;;;24.50;90.20;;;;;;5073173;28;20202;-81
2023/06/12 07:33:41;;;;;;;3.20;2.90;;;24.80;89.80;;;;;;5073151;28;20208;-81
2023/06/12 07:36:08;;;;;;;4.38;2.80;;;24.90;89.00;;;;;;5075964;28;20226;-81
2023/06/12 07:38:35;;;;;;;4.18;3.38;;;25.10;89.20;;;;;;5077103;28;20222;-81
2023/06/12 07:41:02;;;;;;;5.65;2.50;;;25.30;88.80;;;;;;5076895;28;20206;-86
2023/06/12 07:43:32;;;;;;;3.45;3.15;;;25.80;88.30;;;;;;5077327;28;20562;-85
2023/06/12 07:45:59;;;;;;;3.17;2.95;;;26.00;85.90;;;;;;5077416;28;20298;-87
2023/06/12 07:48:27;;;;;;;2.60;2.40;;;26.40;84.60;;;;;;5076760;28;20727;-87
2023/06/12 07:50:54;;;;;;;3.10;2.80;;;26.70;83.40;;;;;;5077279;28;20186;-86
2023/06/12 07:53:21;;;;;;;2.63;2.42;;;26.80;81.80;;;;;;5077157;28;20693;-88
2023/06/12 07:55:49;;;;;;;3.78;2.92;;;26.80;82.40;;;;;;5076648;28;20233;-85
2023/06/12 07:58:15;;;;;;;3.80;3.10;;;27.00;81.40;;;;;;5076983;28;20267;-86
2023/06/12 08:00:43;;;;;;;3.13;2.60;;;27.60;80.70;;;;;;5076754;28;20677;-86
2023/06/12 08:03:09;;;;;;;3.00;2.60;;;28.10;78.90;;;;;;5076881;28;20206;-86
2023/06/12 08:05:37;;;;;;;3.00;2.80;;;28.70;76.80;;;;;;5076481;28;20233;-86
2023/06/12 08:08:05;;;;;;;4.93;2.88;;;29.30;75.10;;;;;;5076426;28;20745;-85
2023/06/12 08:10:32;;;;;;;3.45;2.45;;;29.80;73.50;;;;;;5076316;28;20210;-85
2023/06/12 08:12:58;;;;;;;3.22;2.83;;;30.20;72.30;;;;;;5076665;28;20211;-86
2023/06/12 08:15:25;;;;;;;2.25;2.15;;;30.90;69.10;;;;;;5076514;28;20211;-86
2023/06/12 08:17:52;;;;;;;2.20;2.10;;;31.40;67.20;;;;;;5076154;28;20266;-86
2023/06/12 08:20:19;;;;;;;3.83;3.00;;;32.40;63.60;;;;;;5076276;28;20202;-84
2023/06/12 08:22:47;;;;;;;2.03;1.92;;;33.60;60.20;;;;;;5076458;28;20207;-86
2023/06/12 08:25:14;;;;;;;2.95;2.40;;;34.50;57.00;;;;;;5077448;28;20205;-86
2023/06/12 08:27:41;;;;;;;2.85;2.65;;;34.80;55.10;;;;;;5076562;28;20744;-87
2023/06/12 08:30:09;;;;;;;2.20;2.10;;;34.80;54.10;;;;;;5077007;28;20208;-86
2023/06/12 08:32:36;;;;;;;2.03;1.92;;;34.80;53.60;;;;;;5076468;28;20204;-86
2023/06/12 08:35:04;;;;;;;2.45;1.23;;;34.40;53.50;;;;;;5076350;28;20242;-86
2023/06/12 08:37:31;;;;;;;2.00;1.90;;;33.50;51.60;;;;;;5076418;28;20225;-85
2023/06/12 08:40:00;;;;;;;1.50;1.40;;;32.30;52.60;;;;;;5076958;28;20226;-87
2023/06/12 08:42:27;;;;;;;2.33;2.17;;;31.30;55.30;;;;;;5075856;28;20568;-87
2023/06/12 08:45:02;;;;;;;3.08;1.83;;;30.50;56.20;;;;;;5076014;28;20657;-86
2023/06/12 08:47:34;;;;;;;2.30;2.20;;;30.00;53.70;;;;;;5075387;28;20638;-86
2023/06/12 08:50:01;;;;;;;1.73;1.63;;;29.60;55.00;;;;;;5076037;28;20189;-87
2023/06/12 08:52:28;;;;;;;2.85;2.60;;;29.60;55.90;;;;;;5075952;28;20202;-85
2023/06/12 08:54:57;;;;;;;2.50;2.30;;;30.00;54.80;;;;;;5075893;28;20240;-85
2023/06/12 08:57:27;;;;;;;1.90;1.80;;;30.40;54.00;;;;;;5075725;28;20231;-85
2023/06/12 08:59:54;;;;;;;3.15;2.33;;;31.00;51.80;;;;;;5075764;28;20202;-86
2023/06/12 09:02:23;;;;;;;1.70;1.60;;;31.30;51.30;;;;;;5076021;28;20207;-88
2023/06/12 09:04:57;;;;;;;2.17;2.05;;;30.90;52.30;;;;;;5075985;28;20615;-86
2023/06/12 09:07:26;;;;;;;2.38;2.17;;;30.30;50.70;;;;;;5075759;28;20237;-87
2023/06/12 09:09:53;;;;;;;2.00;1.90;;;29.60;52.80;;;;;;5075730;28;20207;-86
2023/06/12 09:12:20;;;;;;;3.10;2.90;;;29.00;52.90;;;;;;5075647;28;20677;-87
2023/06/12 09:14:50;;;;;;;2.28;1.85;;;28.40;52.90;;;;;;5075698;28;20205;-88
2023/06/12 09:17:17;;;;;;;3.17;2.75;;;27.90;53.50;;;;;;5075655;28;20275;-85
2023/06/12 09:19:45;;;;;;;2.58;2.38;;;27.50;55.50;;;;;;5075224;28;20218;-89
2023/06/12 09:22:13;;;;;;;2.25;2.05;;;27.00;57.00;;;;;;5075261;28;20242;-87
2023/06/12 09:24:40;;;;;;;2.67;2.42;;;26.90;58.60;;;;;;5075685;28;20224;-91
2023/06/12 09:27:08;;;;;;;3.35;2.45;;;27.00;59.90;;;;;;5075675;28;20222;-87
2023/06/12 09:29:36;;;;;;;2.90;2.47;;;27.10;58.70;;;;;;5075478;28;20546;-91
2023/06/12 09:32:07;;;;;;;2.78;2.35;;;27.10;57.60;;;;;;5075382;28;20205;-87
2023/06/12 09:34:34;;;;;;;2.33;2.13;;;26.90;58.80;;;;;;5076213;28;20194;-88
2023/06/12 09:37:02;;;;;;;5.05;2.95;;;26.90;58.90;;;;;;5075514;28;20229;-87
2023/06/12 09:39:30;;;;;;;2.55;2.00;;;26.90;58.40;;;;;;5075477;28;20218;-90
2023/06/12 09:41:58;;;;;;;2.20;2.00;;;26.90;58.20;;;;;;5075417;28;20209;-89
2023/06/12 09:44:27;;;;;;;2.45;2.25;;;26.90;59.50;;;;;;5075034;28;20197;-91
2023/06/12 09:46:59;;;;;;;2.38;2.28;;;26.90;61.20;;;;;;5075630;28;20222;-88
2023/06/12 09:49:28;;;;;;;9.63;2.75;;;26.70;61.20;;;;;;5075800;28;20186;-88
2023/06/12 09:51:55;;;;;;;3.00;2.80;;;26.70;60.70;;;;;;5075701;28;20209;-89
2023/06/12 09:54:23;;;;;;;2.13;1.95;;;26.80;61.10;;;;;;5075889;28;20214;-90
2023/06/12 09:56:53;;;;;;;3.42;2.65;;;27.00;60.70;;;;;;5076126;28;20249;-90
2023/06/12 09:59:22;;;;;;;3.17;2.88;;;27.10;60.40;;;;;;5074659;28;20253;-89
2023/06/12 10:01:50;;;;;;;4.57;3.13;;;27.20;60.20;;;;;;5075421;28;20651;-87
2023/06/12 10:04:25;;;;;;;2.95;2.25;;;27.00;60.90;;;;;;5076212;28;20259;-87
2023/06/12 10:07:02;;;;;;;2.83;2.63;;;26.90;60.10;;;;;;5075340;28;20226;-88
2023/06/12 10:09:29;;;;;;;2.70;2.50;;;27.00;61.00;;;;;;5075539;28;20659;-89
2023/06/12 10:11:58;;;;;;;3.08;2.75;;;27.10;61.90;;;;;;5075734;28;20198;-89
2023/06/12 10:14:26;;;;;;;3.30;2.45;;;27.30;59.60;;;;;;5076419;28;20280;-89
2023/06/12 10:16:55;;;;;;;3.35;2.70;;;27.30;58.70;;;;;;5076049;28;20222;-91
2023/06/12 10:19:25;;;;;;;3.00;2.67;;;27.10;60.40;;;;;;5075848;28;20232;-89
2023/06/12 10:21:54;;;;;;;3.45;3.03;;;27.30;60.80;;;;;;5075472;28;20295;-91
2023/06/12 10:24:22;;;;;;;3.55;2.85;;;27.50;59.50;;;;;;5076911;28;20206;-90
2023/06/12 10:26:51;;;;;;;5.88;3.33;;;27.30;56.50;;;;;;5075760;28;20249;-90
2023/06/12 10:29:28;;;;;;;2.13;1.95;;;27.30;57.90;;;;;;5075007;28;20194;-92
2023/06/12 10:31:55;;;;;;;3.03;2.25;;;27.00;57.80;;;;;;5074747;28;20567;-88
2023/06/12 10:34:21;;;;;;;5.18;2.60;;;26.90;58.30;;;;;;5074692;28;20224;-88
2023/06/12 10:36:49;;;;;;;2.30;2.15;;;26.70;57.90;;;;;;5077254;28;20233;-90
2023/06/12 10:39:19;;;;;;;2.83;2.15;;;26.50;58.40;;;;;;5074349;28;20217;-88
2023/06/12 10:41:57;;;;;;;3.00;2.67;;;26.50;57.60;;;;;;5074757;28;20195;-89
2023/06/12 10:44:41;;;;;;;1.73;1.63;;;26.60;58.90;;;;;;5074652;28;20197;-89
2023/06/12 10:47:18;;;;;;;2.42;2.22;;;26.80;57.50;;;;;;5075006;28;20230;-92
2023/06/12 10:49:59;;;;;;;2.38;2.17;;;26.90;58.70;;;;;;5075983;28;20210;-90
2023/06/12 10:52:26;;;;;;;5.75;2.30;;;27.00;58.60;;;;;;5075257;28;20605;-90
2023/06/12 10:55:19;;;;;;;3.63;2.25;;;27.10;58.60;;;;;;5074818;28;20281;-91
2023/06/12 10:57:50;;;;;;;2.78;2.30;;;26.90;57.60;;;;;;5075636;28;20202;-90
2023/06/12 11:00:18;;;;;;;3.88;2.63;;;27.10;58.50;;;;;;5074613;28;20221;-93
2023/06/12 11:02:46;;;;;;;3.38;2.20;;;27.40;55.90;;;;;;5074769;28;20224;-87
2023/06/12 11:05:18;;;;;;;2.50;2.08;;;27.70;56.90;;;;;;5074832;28;20537;-87
2023/06/12 11:07:47;;;;;;;2.53;2.25;;;28.00;56.90;;;;;;5074993;28;20186;-92
2023/06/12 11:10:15;;;;;;;2.83;2.30;;;28.10;54.80;;;;;;5074684;28;20198;-90
2023/06/12 11:12:48;;;;;;;3.25;2.58;;;28.20;54.30;;;;;;5074612;28;20190;-89
2023/06/12 11:15:16;;;;;;;3.05;2.20;;;28.00;54.80;;;;;;5074516;28;20665;-90
2023/06/12 11:17:43;;;;;;;3.85;2.75;;;27.80;55.50;;;;;;5074529;28;20685;-93
2023/06/12 11:20:11;;;;;;;2.08;1.90;;;27.40;55.20;;;;;;5074406;28;20225;-88
2023/06/12 11:22:38;;;;;;;2.58;2.38;;;27.20;55.30;;;;;;5074275;28;20665;-90
2023/06/12 11:25:06;;;;;;;2.08;1.98;;;27.00;56.40;;;;;;5073711;28;20202;-91
2023/06/12 11:27:34;;;;;;;2.40;2.20;;;26.90;56.10;;;;;;5073791;28;20225;-88
2023/06/12 11:30:09;;;;;;;2.25;2.05;;;26.80;56.50;;;;;;5076639;28;20248;-87
2023/06/12 11:32:36;;;;;;;1.90;1.80;;;26.70;56.40;;;;;;5074889;28;20213;-85
2023/06/12 11:35:04;;;;;;;2.63;2.42;;;26.60;56.10;;;;;;5073173;28;20206;-85
2023/06/12 11:37:32;;;;;;;2.55;2.28;;;26.50;56.30;;;;;;5072973;28;20268;-85
2023/06/12 11:40:08;;;;;;;4.47;2.63;;;26.50;56.70;;;;;;5072696;28;20670;-85
2023/06/12 11:42:36;;;;;;;6.57;2.90;;;26.40;57.10;;;;;;5073232;28;20190;-86
2023/06/12 11:45:03;;;;;;;6.28;2.72;;;26.30;57.90;;;;;;5073397;28;20212;-85
2023/06/12 11:47:31;;;;;;;2.83;2.63;;;26.20;56.90;;;;;;5072860;28;20218;-89
2023/06/12 11:49:58;;;;;;;5.03;2.72;;;26.20;58.90;;;;;;5073756;28;20666;-90
2023/06/12 11:52:25;;;;;;;3.13;2.92;;;26.30;57.60;;;;;;5074257;28;20209;-89
2023/06/12 11:54:57;;;;;;;2.60;2.38;;;26.30;57.20;;;;;;5074509;28;20198;-92
2023/06/12 11:57:26;;;;;;;2.92;2.72;;;26.30;57.60;;;;;;5074250;28;20222;-89
2023/06/12 11:59:56;;;;;;;2.53;2.33;;;26.40;57.30;;;;;;5074467;28;20226;-88
2023/06/12 12:02:32;;;;;;;2.47;2.30;;;26.30;58.00;;;;;;5073660;28;20285;-89
2023/06/12 12:05:04;;;;;;;3.30;2.38;;;26.20;57.80;;;;;;5073818;28;20222;-89
2023/06/12 12:07:32;;;;;;;6.82;2.75;;;26.20;58.60;;;;;;5074131;28;20222;-90
2023/06/12 12:10:07;;;;;;;3.10;2.80;;;26.20;58.80;;;;;;5073795;28;20230;-89
2023/06/12 12:12:44;;;;;;;4.75;4.15;;;26.20;58.00;;;;;;5073689;28;20228;-90
2023/06/12 12:15:12;;;;;;;8.48;2.38;;;26.10;58.00;;;;;;5074056;28;20194;-89
2023/06/12 12:17:41;;;;;;;3.67;2.53;;;26.20;57.20;;;;;;5073765;28;20697;-91
2023/06/12 12:20:15;;;;;;;2.63;2.42;;;26.20;57.60;;;;;;5073908;28;20233;-90
2023/06/12 12:22:43;;;;;;;2.75;2.55;;;26.20;58.30;;;;;;5075253;28;20642;-89
2023/06/12 12:25:11;;;;;;;3.25;2.40;;;26.20;57.80;;;;;;5077139;28;20213;-89
2023/06/12 12:27:39;;;;;;;2.85;2.40;;;26.10;57.40;;;;;;5076887;28;20222;-91
2023/06/12 12:30:07;;;;;;;2.67;2.47;;;25.90;57.10;;;;;;5077346;28;20201;-89
2023/06/12 12:32:33;;;;;;;2.20;2.00;;;25.80;56.90;;;;;;5077245;28;20312;-89
2023/06/12 12:35:02;;;;;;;3.40;2.65;;;25.70;57.20;;;;;;5076784;28;20666;-89
2023/06/12 12:37:29;;;;;;;3.30;2.53;;;25.60;56.30;;;;;;5077365;28;20318;-88
2023/06/12 12:39:55;;;;;;;4.80;2.22;;;25.40;57.30;;;;;;5077150;28;20221;-89
2023/06/12 12:42:22;;;;;;;2.38;2.17;;;25.50;58.50;;;;;;5077311;28;20206;-89
2023/06/12 12:44:49;;;;;;;2.63;2.42;;;25.40;57.70;;;;;;5077776;28;20202;-88
2023/06/12 12:47:15;;;;;;;3.50;2.35;;;25.50;56.70;;;;;;5077121;28;20222;-91
2023/06/12 12:49:42;;;;;;;2.95;2.70;;;25.40;56.40;;;;;;5077091;28;20198;-89
2023/06/12 12:52:10;;;;;;;2.22;2.00;;;25.40;57.00;;;;;;5077065;28;20213;-89
2023/06/12 12:54:37;;;;;;;3.75;2.88;;;25.40;57.40;;;;;;5077262;28;20687;-89